sensor_id;sensor_type;location;lat;lon;timestamp;P1;durP1;ratioP1;P2;durP2;ratioP2
34914;SDS011;21125;48.630;9.276;2022-08-19T00:00:57;33.60;;;30.00;;
34914;SDS011;21125;48.630;9.276;2022-08-19T00:03:23;36.35;;;32.25;;
34914;SDS011;21125;48.630;9.276;2022-08-19T00:05:49;32.92;;;29.42;;
34914;SDS011;21125;48.630;9.276;2022-08-19T00:08:15;35.95;;;31.27;;
34914;SDS011;21125;48.630;9.276;2022-08-19T00:10:41;33.08;;;29.52;;
34914;SDS011;21125;48.630;9.276;2022-08-19T00:13:07;35.95;;;32.22;;
34914;SDS011;21125;48.630;9.276;2022-08-19T00:15:34;32.90;;;29.40;;
34914;SDS011;21125;48.630;9.276;2022-08-19T00:18:00;32.85;;;29.48;;
34914;SDS011;21125;48.630;9.276;2022-08-19T00:20:26;33.00;;;29.58;;
34914;SDS011;21125;48.630;9.276;2022-08-19T00:22:52;32.53;;;29.27;;
34914;SDS011;21125;48.630;9.276;2022-08-19T00:25:19;31.13;;;27.70;;
34914;SDS011;21125;48.630;9.276;2022-08-19T00:27:45;33.92;;;30.35;;
34914;SDS011;21125;48.630;9.276;2022-08-19T00:30:12;31.98;;;28.50;;
34914;SDS011;21125;48.630;9.276;2022-08-19T00:32:38;32.20;;;28.83;;
34914;SDS011;21125;48.630;9.276;2022-08-19T00:35:04;35.97;;;32.17;;
34914;SDS011;21125;48.630;9.276;2022-08-19T00:37:30;37.10;;;32.75;;
34914;SDS011;21125;48.630;9.276;2022-08-19T00:39:57;35.15;;;31.38;;
34914;SDS011;21125;48.630;9.276;2022-08-19T00:42:23;33.75;;;30.10;;
34914;SDS011;21125;48.630;9.276;2022-08-19T00:44:53;28.67;;;25.80;;
34914;SDS011;21125;48.630;9.276;2022-08-19T00:47:19;27.95;;;24.77;;
34914;SDS011;21125;48.630;9.276;2022-08-19T00:52:16;27.05;;;24.33;;
34914;SDS011;21125;48.630;9.276;2022-08-19T00:54:43;27.15;;;24.25;;
34914;SDS011;21125;48.630;9.276;2022-08-19T00:57:11;26.52;;;23.95;;
34914;SDS011;21125;48.630;9.276;2022-08-19T00:59:38;27.48;;;24.65;;
34914;SDS011;21125;48.630;9.276;2022-08-19T01:02:05;29.60;;;26.50;;
34914;SDS011;21125;48.630;9.276;2022-08-19T01:04:31;28.42;;;25.42;;
34914;SDS011;21125;48.630;9.276;2022-08-19T01:06:57;29.45;;;26.30;;
34914;SDS011;21125;48.630;9.276;2022-08-19T01:09:23;29.50;;;26.50;;
34914;SDS011;21125;48.630;9.276;2022-08-19T01:11:49;29.63;;;25.48;;
34914;SDS011;21125;48.630;9.276;2022-08-19T01:14:15;28.60;;;25.75;;
34914;SDS011;21125;48.630;9.276;2022-08-19T01:16:41;27.98;;;24.27;;
34914;SDS011;21125;48.630;9.276;2022-08-19T01:19:10;30.55;;;27.23;;
34914;SDS011;21125;48.630;9.276;2022-08-19T01:21:44;29.15;;;26.00;;
34914;SDS011;21125;48.630;9.276;2022-08-19T01:24:12;28.70;;;25.13;;
34914;SDS011;21125;48.630;9.276;2022-08-19T01:26:42;29.02;;;25.58;;
34914;SDS011;21125;48.630;9.276;2022-08-19T01:29:09;27.33;;;24.23;;
34914;SDS011;21125;48.630;9.276;2022-08-19T01:31:36;30.98;;;26.02;;
34914;SDS011;21125;48.630;9.276;2022-08-19T01:34:04;28.40;;;25.30;;
34914;SDS011;21125;48.630;9.276;2022-08-19T01:36:33;29.70;;;25.60;;
34914;SDS011;21125;48.630;9.276;2022-08-19T01:39:01;29.08;;;25.92;;
34914;SDS011;21125;48.630;9.276;2022-08-19T01:41:27;28.63;;;25.58;;
34914;SDS011;21125;48.630;9.276;2022-08-19T01:43:53;32.05;;;25.70;;
34914;SDS011;21125;48.630;9.276;2022-08-19T01:46:19;29.00;;;24.90;;
34914;SDS011;21125;48.630;9.276;2022-08-19T01:48:45;31.30;;;26.73;;
34914;SDS011;21125;48.630;9.276;2022-08-19T01:51:12;30.15;;;26.20;;
34914;SDS011;21125;48.630;9.276;2022-08-19T01:53:38;32.55;;;27.15;;
34914;SDS011;21125;48.630;9.276;2022-08-19T01:56:05;28.70;;;25.05;;
34914;SDS011;21125;48.630;9.276;2022-08-19T01:58:35;32.13;;;25.42;;
34914;SDS011;21125;48.630;9.276;2022-08-19T02:01:02;31.10;;;26.23;;
34914;SDS011;21125;48.630;9.276;2022-08-19T02:03:29;31.98;;;26.42;;
34914;SDS011;21125;48.630;9.276;2022-08-19T02:05:56;29.73;;;24.10;;
34914;SDS011;21125;48.630;9.276;2022-08-19T02:08:22;28.65;;;25.17;;
34914;SDS011;21125;48.630;9.276;2022-08-19T02:10:48;32.33;;;24.67;;
34914;SDS011;21125;48.630;9.276;2022-08-19T02:13:15;31.98;;;25.65;;
34914;SDS011;21125;48.630;9.276;2022-08-19T02:15:41;29.13;;;25.67;;
34914;SDS011;21125;48.630;9.276;2022-08-19T02:18:07;30.50;;;25.58;;
34914;SDS011;21125;48.630;9.276;2022-08-19T02:20:33;28.42;;;23.65;;
34914;SDS011;21125;48.630;9.276;2022-08-19T02:22:59;29.63;;;24.95;;
34914;SDS011;21125;48.630;9.276;2022-08-19T02:25:26;29.38;;;24.77;;
34914;SDS011;21125;48.630;9.276;2022-08-19T02:27:52;28.35;;;24.67;;
34914;SDS011;21125;48.630;9.276;2022-08-19T02:30:19;31.70;;;25.05;;
34914;SDS011;21125;48.630;9.276;2022-08-19T02:32:45;34.03;;;27.02;;
34914;SDS011;21125;48.630;9.276;2022-08-19T02:35:11;30.30;;;25.60;;
34914;SDS011;21125;48.630;9.276;2022-08-19T02:37:38;30.35;;;24.75;;
34914;SDS011;21125;48.630;9.276;2022-08-19T02:42:48;28.33;;;24.13;;
34914;SDS011;21125;48.630;9.276;2022-08-19T02:45:15;33.67;;;27.00;;
34914;SDS011;21125;48.630;9.276;2022-08-19T02:47:41;34.97;;;27.33;;
34914;SDS011;21125;48.630;9.276;2022-08-19T02:50:07;29.55;;;24.50;;
34914;SDS011;21125;48.630;9.276;2022-08-19T02:52:33;32.47;;;27.35;;
34914;SDS011;21125;48.630;9.276;2022-08-19T02:55:00;34.40;;;26.10;;
34914;SDS011;21125;48.630;9.276;2022-08-19T02:57:26;37.40;;;28.77;;
34914;SDS011;21125;48.630;9.276;2022-08-19T02:59:52;36.80;;;26.27;;
34914;SDS011;21125;48.630;9.276;2022-08-19T03:02:18;36.50;;;27.58;;
34914;SDS011;21125;48.630;9.276;2022-08-19T03:04:44;36.83;;;27.85;;
34914;SDS011;21125;48.630;9.276;2022-08-19T03:07:14;34.80;;;27.02;;
34914;SDS011;21125;48.630;9.276;2022-08-19T03:09:41;32.88;;;26.08;;
34914;SDS011;21125;48.630;9.276;2022-08-19T03:12:10;35.75;;;27.17;;
34914;SDS011;21125;48.630;9.276;2022-08-19T03:14:36;34.60;;;26.38;;
34914;SDS011;21125;48.630;9.276;2022-08-19T03:17:03;38.85;;;27.67;;
34914;SDS011;21125;48.630;9.276;2022-08-19T03:19:29;38.70;;;28.77;;
34914;SDS011;21125;48.630;9.276;2022-08-19T03:21:56;37.67;;;29.40;;
34914;SDS011;21125;48.630;9.276;2022-08-19T03:24:22;39.40;;;29.65;;
34914;SDS011;21125;48.630;9.276;2022-08-19T03:26:50;39.33;;;29.33;;
34914;SDS011;21125;48.630;9.276;2022-08-19T03:29:17;43.38;;;30.02;;
34914;SDS011;21125;48.630;9.276;2022-08-19T03:31:44;40.38;;;29.92;;
34914;SDS011;21125;48.630;9.276;2022-08-19T03:34:11;39.20;;;28.95;;
34914;SDS011;21125;48.630;9.276;2022-08-19T03:36:37;39.13;;;29.05;;
34914;SDS011;21125;48.630;9.276;2022-08-19T03:39:03;39.05;;;29.23;;
34914;SDS011;21125;48.630;9.276;2022-08-19T03:41:31;43.42;;;30.67;;
34914;SDS011;21125;48.630;9.276;2022-08-19T03:43:57;41.33;;;29.52;;
34914;SDS011;21125;48.630;9.276;2022-08-19T03:46:26;45.90;;;32.38;;
34914;SDS011;21125;48.630;9.276;2022-08-19T03:48:53;48.30;;;30.55;;
34914;SDS011;21125;48.630;9.276;2022-08-19T03:51:21;34.35;;;26.38;;
34914;SDS011;21125;48.630;9.276;2022-08-19T03:53:47;41.38;;;28.50;;
34914;SDS011;21125;48.630;9.276;2022-08-19T03:56:14;36.38;;;28.80;;
34914;SDS011;21125;48.630;9.276;2022-08-19T03:58:40;44.58;;;29.88;;
34914;SDS011;21125;48.630;9.276;2022-08-19T04:01:07;43.60;;;29.20;;
34914;SDS011;21125;48.630;9.276;2022-08-19T04:03:33;42.38;;;29.77;;
34914;SDS011;21125;48.630;9.276;2022-08-19T04:06:08;45.65;;;31.92;;
34914;SDS011;21125;48.630;9.276;2022-08-19T04:08:34;51.72;;;33.90;;
34914;SDS011;21125;48.630;9.276;2022-08-19T04:11:00;44.00;;;32.08;;
34914;SDS011;21125;48.630;9.276;2022-08-19T04:13:26;47.58;;;32.15;;
34914;SDS011;21125;48.630;9.276;2022-08-19T04:15:52;46.78;;;30.15;;
34914;SDS011;21125;48.630;9.276;2022-08-19T04:18:18;38.00;;;27.92;;
34914;SDS011;21125;48.630;9.276;2022-08-19T04:20:46;42.78;;;29.25;;
34914;SDS011;21125;48.630;9.276;2022-08-19T04:23:13;41.92;;;30.02;;
34914;SDS011;21125;48.630;9.276;2022-08-19T04:25:40;45.33;;;29.98;;
34914;SDS011;21125;48.630;9.276;2022-08-19T04:28:06;42.03;;;28.63;;
34914;SDS011;21125;48.630;9.276;2022-08-19T04:30:45;41.05;;;28.33;;
34914;SDS011;21125;48.630;9.276;2022-08-19T04:33:12;45.67;;;30.15;;
34914;SDS011;21125;48.630;9.276;2022-08-19T04:35:39;44.75;;;32.50;;
34914;SDS011;21125;48.630;9.276;2022-08-19T04:38:06;39.70;;;28.77;;
34914;SDS011;21125;48.630;9.276;2022-08-19T04:40:32;41.70;;;29.50;;
34914;SDS011;21125;48.630;9.276;2022-08-19T04:45:43;39.63;;;27.70;;
34914;SDS011;21125;48.630;9.276;2022-08-19T04:48:10;46.20;;;31.25;;
34914;SDS011;21125;48.630;9.276;2022-08-19T04:50:36;43.47;;;31.00;;
34914;SDS011;21125;48.630;9.276;2022-08-19T04:53:02;44.28;;;31.38;;
34914;SDS011;21125;48.630;9.276;2022-08-19T04:55:28;41.50;;;29.60;;
34914;SDS011;21125;48.630;9.276;2022-08-19T04:57:54;38.50;;;29.23;;
34914;SDS011;21125;48.630;9.276;2022-08-19T05:00:20;42.33;;;31.55;;
34914;SDS011;21125;48.630;9.276;2022-08-19T05:02:46;41.20;;;29.98;;
34914;SDS011;21125;48.630;9.276;2022-08-19T05:05:14;44.65;;;31.30;;
34914;SDS011;21125;48.630;9.276;2022-08-19T05:07:40;34.58;;;26.85;;
34914;SDS011;21125;48.630;9.276;2022-08-19T05:10:06;42.00;;;29.25;;
34914;SDS011;21125;48.630;9.276;2022-08-19T05:12:32;40.20;;;28.77;;
34914;SDS011;21125;48.630;9.276;2022-08-19T05:14:59;36.28;;;27.25;;
34914;SDS011;21125;48.630;9.276;2022-08-19T05:17:26;37.95;;;29.05;;
34914;SDS011;21125;48.630;9.276;2022-08-19T05:19:52;40.08;;;29.77;;
34914;SDS011;21125;48.630;9.276;2022-08-19T05:22:36;42.05;;;31.00;;
34914;SDS011;21125;48.630;9.276;2022-08-19T05:25:03;41.13;;;30.95;;
34914;SDS011;21125;48.630;9.276;2022-08-19T05:27:30;40.20;;;29.95;;
34914;SDS011;21125;48.630;9.276;2022-08-19T05:29:56;39.15;;;30.38;;
34914;SDS011;21125;48.630;9.276;2022-08-19T05:32:22;39.08;;;31.80;;
34914;SDS011;21125;48.630;9.276;2022-08-19T05:34:48;40.00;;;31.35;;
34914;SDS011;21125;48.630;9.276;2022-08-19T05:37:14;39.30;;;30.45;;
34914;SDS011;21125;48.630;9.276;2022-08-19T05:39:41;41.70;;;30.10;;
34914;SDS011;21125;48.630;9.276;2022-08-19T05:42:09;38.10;;;30.25;;
34914;SDS011;21125;48.630;9.276;2022-08-19T05:44:36;37.60;;;29.73;;
34914;SDS011;21125;48.630;9.276;2022-08-19T05:47:03;36.00;;;29.98;;
34914;SDS011;21125;48.630;9.276;2022-08-19T05:49:31;36.10;;;29.00;;
34914;SDS011;21125;48.630;9.276;2022-08-19T05:51:58;36.45;;;29.65;;
34914;SDS011;21125;48.630;9.276;2022-08-19T05:54:24;39.15;;;29.73;;
34914;SDS011;21125;48.630;9.276;2022-08-19T05:56:51;40.42;;;29.55;;
34914;SDS011;21125;48.630;9.276;2022-08-19T05:59:17;43.85;;;29.05;;
34914;SDS011;21125;48.630;9.276;2022-08-19T06:01:45;41.38;;;29.30;;
34914;SDS011;21125;48.630;9.276;2022-08-19T06:04:11;42.20;;;30.67;;
34914;SDS011;21125;48.630;9.276;2022-08-19T06:06:43;43.97;;;29.20;;
34914;SDS011;21125;48.630;9.276;2022-08-19T06:09:09;41.80;;;28.17;;
34914;SDS011;21125;48.630;9.276;2022-08-19T06:14:06;46.42;;;28.75;;
34914;SDS011;21125;48.630;9.276;2022-08-19T06:16:36;47.90;;;30.70;;
34914;SDS011;21125;48.630;9.276;2022-08-19T06:19:03;41.28;;;32.05;;
34914;SDS011;21125;48.630;9.276;2022-08-19T06:21:31;41.13;;;30.45;;
34914;SDS011;21125;48.630;9.276;2022-08-19T06:23:57;42.08;;;30.27;;
34914;SDS011;21125;48.630;9.276;2022-08-19T06:26:24;41.58;;;32.22;;
34914;SDS011;21125;48.630;9.276;2022-08-19T06:28:51;42.28;;;32.88;;
34914;SDS011;21125;48.630;9.276;2022-08-19T06:31:18;40.28;;;31.92;;
34914;SDS011;21125;48.630;9.276;2022-08-19T06:33:45;43.00;;;32.78;;
34914;SDS011;21125;48.630;9.276;2022-08-19T06:36:18;41.65;;;31.63;;
34914;SDS011;21125;48.630;9.276;2022-08-19T06:38:45;45.38;;;34.95;;
34914;SDS011;21125;48.630;9.276;2022-08-19T06:41:10;43.17;;;31.50;;
34914;SDS011;21125;48.630;9.276;2022-08-19T06:43:36;37.53;;;29.70;;
34914;SDS011;21125;48.630;9.276;2022-08-19T06:46:02;42.33;;;33.35;;
34914;SDS011;21125;48.630;9.276;2022-08-19T06:48:29;44.80;;;31.75;;
34914;SDS011;21125;48.630;9.276;2022-08-19T06:50:55;45.67;;;34.30;;
34914;SDS011;21125;48.630;9.276;2022-08-19T06:53:21;44.25;;;33.35;;
34914;SDS011;21125;48.630;9.276;2022-08-19T06:55:47;44.55;;;34.42;;
34914;SDS011;21125;48.630;9.276;2022-08-19T06:58:13;42.63;;;33.25;;
34914;SDS011;21125;48.630;9.276;2022-08-19T07:00:39;47.00;;;34.83;;
34914;SDS011;21125;48.630;9.276;2022-08-19T07:03:05;44.08;;;33.92;;
34914;SDS011;21125;48.630;9.276;2022-08-19T07:05:31;44.97;;;33.22;;
34914;SDS011;21125;48.630;9.276;2022-08-19T07:07:57;50.67;;;35.25;;
34914;SDS011;21125;48.630;9.276;2022-08-19T07:10:23;56.22;;;35.38;;
34914;SDS011;21125;48.630;9.276;2022-08-19T07:12:50;48.20;;;36.33;;
34914;SDS011;21125;48.630;9.276;2022-08-19T07:15:16;59.38;;;38.10;;
34914;SDS011;21125;48.630;9.276;2022-08-19T07:17:42;60.03;;;38.20;;
34914;SDS011;21125;48.630;9.276;2022-08-19T07:20:08;56.13;;;36.30;;
34914;SDS011;21125;48.630;9.276;2022-08-19T07:22:35;57.00;;;38.75;;
34914;SDS011;21125;48.630;9.276;2022-08-19T07:25:00;50.90;;;35.30;;
34914;SDS011;21125;48.630;9.276;2022-08-19T07:27:28;51.33;;;35.63;;
34914;SDS011;21125;48.630;9.276;2022-08-19T07:29:54;58.92;;;37.50;;
34914;SDS011;21125;48.630;9.276;2022-08-19T07:32:20;52.13;;;36.95;;
34914;SDS011;21125;48.630;9.276;2022-08-19T07:34:46;57.10;;;37.22;;
34914;SDS011;21125;48.630;9.276;2022-08-19T07:37:12;54.30;;;37.25;;
34914;SDS011;21125;48.630;9.276;2022-08-19T07:39:38;61.83;;;40.15;;
34914;SDS011;21125;48.630;9.276;2022-08-19T07:42:06;54.92;;;40.85;;
34914;SDS011;21125;48.630;9.276;2022-08-19T07:44:32;53.70;;;38.60;;
34914;SDS011;21125;48.630;9.276;2022-08-19T07:46:59;61.10;;;40.83;;
34914;SDS011;21125;48.630;9.276;2022-08-19T07:49:26;51.88;;;37.42;;
34914;SDS011;21125;48.630;9.276;2022-08-19T07:51:53;56.30;;;39.83;;
34914;SDS011;21125;48.630;9.276;2022-08-19T07:54:21;49.08;;;36.78;;
34914;SDS011;21125;48.630;9.276;2022-08-19T07:56:47;49.70;;;38.05;;
34914;SDS011;21125;48.630;9.276;2022-08-19T07:59:15;49.42;;;37.15;;
34914;SDS011;21125;48.630;9.276;2022-08-19T08:01:42;52.90;;;38.33;;
34914;SDS011;21125;48.630;9.276;2022-08-19T08:04:08;50.92;;;36.60;;
34914;SDS011;21125;48.630;9.276;2022-08-19T08:06:53;58.50;;;38.08;;
34914;SDS011;21125;48.630;9.276;2022-08-19T08:09:39;54.55;;;39.42;;
34914;SDS011;21125;48.630;9.276;2022-08-19T08:12:07;53.35;;;39.25;;
34914;SDS011;21125;48.630;9.276;2022-08-19T08:14:37;49.42;;;36.03;;
34914;SDS011;21125;48.630;9.276;2022-08-19T08:17:04;50.20;;;36.92;;
34914;SDS011;21125;48.630;9.276;2022-08-19T08:19:30;51.28;;;37.97;;
34914;SDS011;21125;48.630;9.276;2022-08-19T08:21:58;56.08;;;38.25;;
34914;SDS011;21125;48.630;9.276;2022-08-19T08:24:25;53.95;;;39.08;;
34914;SDS011;21125;48.630;9.276;2022-08-19T08:26:51;52.08;;;37.60;;
34914;SDS011;21125;48.630;9.276;2022-08-19T08:29:17;55.20;;;38.22;;
34914;SDS011;21125;48.630;9.276;2022-08-19T08:31:44;50.88;;;38.60;;
34914;SDS011;21125;48.630;9.276;2022-08-19T08:34:11;52.80;;;38.70;;
34914;SDS011;21125;48.630;9.276;2022-08-19T08:36:38;52.58;;;38.15;;
34914;SDS011;21125;48.630;9.276;2022-08-19T08:39:08;52.25;;;39.03;;
34914;SDS011;21125;48.630;9.276;2022-08-19T08:47:11;48.00;;;35.58;;
34914;SDS011;21125;48.630;9.276;2022-08-19T08:49:43;47.22;;;35.85;;
34914;SDS011;21125;48.630;9.276;2022-08-19T08:52:24;53.53;;;37.55;;
34914;SDS011;21125;48.630;9.276;2022-08-19T08:54:52;53.47;;;39.50;;
34914;SDS011;21125;48.630;9.276;2022-08-19T08:59:47;55.40;;;39.92;;
34914;SDS011;21125;48.630;9.276;2022-08-19T09:02:15;57.25;;;39.95;;
34914;SDS011;21125;48.630;9.276;2022-08-19T09:04:41;57.67;;;39.95;;
34914;SDS011;21125;48.630;9.276;2022-08-19T09:07:12;54.70;;;38.50;;
34914;SDS011;21125;48.630;9.276;2022-08-19T09:09:45;46.65;;;37.55;;
34914;SDS011;21125;48.630;9.276;2022-08-19T09:12:19;53.17;;;37.40;;
34914;SDS011;21125;48.630;9.276;2022-08-19T09:14:48;48.40;;;37.72;;
34914;SDS011;21125;48.630;9.276;2022-08-19T09:17:15;50.08;;;37.72;;
34914;SDS011;21125;48.630;9.276;2022-08-19T09:19:52;49.35;;;36.30;;
34914;SDS011;21125;48.630;9.276;2022-08-19T09:22:18;48.42;;;36.90;;
34914;SDS011;21125;48.630;9.276;2022-08-19T09:24:48;49.15;;;37.33;;
34914;SDS011;21125;48.630;9.276;2022-08-19T09:27:15;49.47;;;36.97;;
34914;SDS011;21125;48.630;9.276;2022-08-19T09:29:41;45.63;;;36.65;;
34914;SDS011;21125;48.630;9.276;2022-08-19T09:32:07;47.10;;;36.47;;
34914;SDS011;21125;48.630;9.276;2022-08-19T09:34:33;42.00;;;33.15;;
34914;SDS011;21125;48.630;9.276;2022-08-19T09:36:59;47.67;;;35.22;;
34914;SDS011;21125;48.630;9.276;2022-08-19T09:39:25;38.58;;;33.45;;
34914;SDS011;21125;48.630;9.276;2022-08-19T09:41:51;40.50;;;33.65;;
34914;SDS011;21125;48.630;9.276;2022-08-19T09:44:18;39.90;;;32.88;;
34914;SDS011;21125;48.630;9.276;2022-08-19T09:46:45;39.05;;;32.47;;
34914;SDS011;21125;48.630;9.276;2022-08-19T09:49:16;43.13;;;33.70;;
34914;SDS011;21125;48.630;9.276;2022-08-19T09:51:42;40.53;;;33.83;;
34914;SDS011;21125;48.630;9.276;2022-08-19T09:54:08;39.83;;;32.33;;
34914;SDS011;21125;48.630;9.276;2022-08-19T09:56:34;40.33;;;33.03;;
34914;SDS011;21125;48.630;9.276;2022-08-19T09:59:01;40.42;;;33.97;;
34914;SDS011;21125;48.630;9.276;2022-08-19T10:01:29;37.63;;;32.80;;
34914;SDS011;21125;48.630;9.276;2022-08-19T10:03:56;39.88;;;32.45;;
34914;SDS011;21125;48.630;9.276;2022-08-19T10:06:23;38.95;;;32.92;;
34914;SDS011;21125;48.630;9.276;2022-08-19T10:08:49;43.28;;;32.03;;
34914;SDS011;21125;48.630;9.276;2022-08-19T10:11:16;43.25;;;34.58;;
34914;SDS011;21125;48.630;9.276;2022-08-19T10:13:43;43.40;;;35.53;;
34914;SDS011;21125;48.630;9.276;2022-08-19T10:16:11;43.45;;;32.60;;
34914;SDS011;21125;48.630;9.276;2022-08-19T10:18:37;40.00;;;33.47;;
34914;SDS011;21125;48.630;9.276;2022-08-19T10:21:19;43.85;;;33.88;;
34914;SDS011;21125;48.630;9.276;2022-08-19T10:23:46;44.13;;;35.88;;
34914;SDS011;21125;48.630;9.276;2022-08-19T10:26:14;45.70;;;35.83;;
34914;SDS011;21125;48.630;9.276;2022-08-19T10:28:40;48.10;;;36.00;;
34914;SDS011;21125;48.630;9.276;2022-08-19T10:31:07;47.13;;;35.38;;
34914;SDS011;21125;48.630;9.276;2022-08-19T10:33:34;41.55;;;36.05;;
34914;SDS011;21125;48.630;9.276;2022-08-19T10:36:01;48.05;;;37.17;;
34914;SDS011;21125;48.630;9.276;2022-08-19T10:38:27;53.00;;;40.55;;
34914;SDS011;21125;48.630;9.276;2022-08-19T10:40:53;56.72;;;39.58;;
34914;SDS011;21125;48.630;9.276;2022-08-19T10:43:19;62.38;;;41.58;;
34914;SDS011;21125;48.630;9.276;2022-08-19T10:45:51;58.90;;;41.97;;
34914;SDS011;21125;48.630;9.276;2022-08-19T10:48:18;59.30;;;43.15;;
34914;SDS011;21125;48.630;9.276;2022-08-19T10:50:44;64.88;;;43.97;;
34914;SDS011;21125;48.630;9.276;2022-08-19T10:53:29;64.10;;;42.88;;
34914;SDS011;21125;48.630;9.276;2022-08-19T10:55:55;65.07;;;45.33;;
34914;SDS011;21125;48.630;9.276;2022-08-19T10:58:39;66.90;;;45.88;;
34914;SDS011;21125;48.630;9.276;2022-08-19T11:01:06;73.65;;;46.35;;
34914;SDS011;21125;48.630;9.276;2022-08-19T11:03:32;65.07;;;45.10;;
34914;SDS011;21125;48.630;9.276;2022-08-19T11:06:03;67.60;;;44.72;;
34914;SDS011;21125;48.630;9.276;2022-08-19T11:08:29;66.32;;;44.83;;
34914;SDS011;21125;48.630;9.276;2022-08-19T11:10:57;69.38;;;45.92;;
34914;SDS011;21125;48.630;9.276;2022-08-19T11:13:25;64.80;;;45.53;;
34914;SDS011;21125;48.630;9.276;2022-08-19T11:15:58;70.15;;;45.42;;
34914;SDS011;21125;48.630;9.276;2022-08-19T11:18:24;72.38;;;46.75;;
34914;SDS011;21125;48.630;9.276;2022-08-19T11:20:51;65.35;;;45.28;;
34914;SDS011;21125;48.630;9.276;2022-08-19T11:23:17;66.05;;;44.35;;
34914;SDS011;21125;48.630;9.276;2022-08-19T11:25:45;66.00;;;45.50;;
34914;SDS011;21125;48.630;9.276;2022-08-19T11:28:11;66.47;;;45.10;;
34914;SDS011;21125;48.630;9.276;2022-08-19T11:30:37;65.05;;;44.72;;
34914;SDS011;21125;48.630;9.276;2022-08-19T11:33:03;70.70;;;46.75;;
34914;SDS011;21125;48.630;9.276;2022-08-19T11:35:29;76.53;;;48.50;;
34914;SDS011;21125;48.630;9.276;2022-08-19T11:37:55;152.35;;;55.38;;
34914;SDS011;21125;48.630;9.276;2022-08-19T11:40:26;71.32;;;45.83;;
34914;SDS011;21125;48.630;9.276;2022-08-19T11:42:52;80.80;;;45.85;;
34914;SDS011;21125;48.630;9.276;2022-08-19T11:45:21;94.85;;;53.15;;
34914;SDS011;21125;48.630;9.276;2022-08-19T11:47:47;81.45;;;48.67;;
34914;SDS011;21125;48.630;9.276;2022-08-19T11:50:13;78.53;;;49.95;;
34914;SDS011;21125;48.630;9.276;2022-08-19T11:52:40;76.38;;;49.38;;
34914;SDS011;21125;48.630;9.276;2022-08-19T11:55:06;85.75;;;51.70;;
34914;SDS011;21125;48.630;9.276;2022-08-19T11:57:32;74.70;;;45.70;;
34914;SDS011;21125;48.630;9.276;2022-08-19T11:59:58;81.28;;;50.30;;
34914;SDS011;21125;48.630;9.276;2022-08-19T12:02:24;79.15;;;48.25;;
34914;SDS011;21125;48.630;9.276;2022-08-19T12:04:50;73.13;;;45.45;;
34914;SDS011;21125;48.630;9.276;2022-08-19T12:07:16;74.35;;;45.85;;
34914;SDS011;21125;48.630;9.276;2022-08-19T12:09:42;76.32;;;47.65;;
34914;SDS011;21125;48.630;9.276;2022-08-19T12:12:09;74.90;;;48.58;;
34914;SDS011;21125;48.630;9.276;2022-08-19T12:14:35;66.38;;;45.17;;
34914;SDS011;21125;48.630;9.276;2022-08-19T12:17:01;70.05;;;45.95;;
34914;SDS011;21125;48.630;9.276;2022-08-19T12:19:29;62.60;;;44.08;;
34914;SDS011;21125;48.630;9.276;2022-08-19T12:21:58;66.97;;;46.95;;
34914;SDS011;21125;48.630;9.276;2022-08-19T12:24:26;71.95;;;46.28;;
34914;SDS011;21125;48.630;9.276;2022-08-19T12:26:52;80.32;;;49.15;;
34914;SDS011;21125;48.630;9.276;2022-08-19T12:29:21;79.47;;;50.13;;
34914;SDS011;21125;48.630;9.276;2022-08-19T12:31:48;77.35;;;48.95;;
34914;SDS011;21125;48.630;9.276;2022-08-19T12:34:14;76.53;;;47.97;;
34914;SDS011;21125;48.630;9.276;2022-08-19T12:36:40;72.53;;;48.75;;
34914;SDS011;21125;48.630;9.276;2022-08-19T12:39:06;71.10;;;47.35;;
34914;SDS011;21125;48.630;9.276;2022-08-19T12:41:33;78.45;;;49.58;;
34914;SDS011;21125;48.630;9.276;2022-08-19T12:43:59;79.30;;;49.47;;
34914;SDS011;21125;48.630;9.276;2022-08-19T12:46:25;78.95;;;49.10;;
34914;SDS011;21125;48.630;9.276;2022-08-19T12:48:51;72.47;;;47.50;;
34914;SDS011;21125;48.630;9.276;2022-08-19T12:51:19;72.07;;;46.63;;
34914;SDS011;21125;48.630;9.276;2022-08-19T12:53:45;64.65;;;46.28;;
34914;SDS011;21125;48.630;9.276;2022-08-19T12:56:12;68.78;;;46.33;;
34914;SDS011;21125;48.630;9.276;2022-08-19T12:58:39;63.97;;;44.10;;
34914;SDS011;21125;48.630;9.276;2022-08-19T13:01:07;64.75;;;44.22;;
34914;SDS011;21125;48.630;9.276;2022-08-19T13:03:33;67.07;;;45.53;;
34914;SDS011;21125;48.630;9.276;2022-08-19T13:05:59;69.97;;;45.90;;
34914;SDS011;21125;48.630;9.276;2022-08-19T13:08:25;67.57;;;46.10;;
34914;SDS011;21125;48.630;9.276;2022-08-19T13:10:51;62.78;;;46.20;;
34914;SDS011;21125;48.630;9.276;2022-08-19T13:13:18;61.78;;;44.05;;
34914;SDS011;21125;48.630;9.276;2022-08-19T13:15:44;63.67;;;44.03;;
34914;SDS011;21125;48.630;9.276;2022-08-19T13:18:10;60.38;;;43.20;;
34914;SDS011;21125;48.630;9.276;2022-08-19T13:20:38;55.33;;;41.53;;
34914;SDS011;21125;48.630;9.276;2022-08-19T13:23:05;54.38;;;39.10;;
34914;SDS011;21125;48.630;9.276;2022-08-19T13:25:31;53.60;;;40.75;;
34914;SDS011;21125;48.630;9.276;2022-08-19T13:27:57;58.22;;;38.40;;
34914;SDS011;21125;48.630;9.276;2022-08-19T13:30:23;54.33;;;40.15;;
34914;SDS011;21125;48.630;9.276;2022-08-19T13:33:08;49.38;;;39.17;;
34914;SDS011;21125;48.630;9.276;2022-08-19T13:35:37;53.15;;;39.25;;
34914;SDS011;21125;48.630;9.276;2022-08-19T13:38:04;47.38;;;38.05;;
34914;SDS011;21125;48.630;9.276;2022-08-19T13:40:30;49.30;;;39.92;;
34914;SDS011;21125;48.630;9.276;2022-08-19T13:42:59;53.53;;;40.67;;
34914;SDS011;21125;48.630;9.276;2022-08-19T13:45:26;52.90;;;40.25;;
34914;SDS011;21125;48.630;9.276;2022-08-19T13:47:53;61.35;;;41.30;;
34914;SDS011;21125;48.630;9.276;2022-08-19T13:50:22;57.90;;;41.67;;
34914;SDS011;21125;48.630;9.276;2022-08-19T13:52:49;50.38;;;39.78;;
34914;SDS011;21125;48.630;9.276;2022-08-19T13:55:15;53.92;;;40.47;;
34914;SDS011;21125;48.630;9.276;2022-08-19T13:57:41;51.35;;;39.60;;
34914;SDS011;21125;48.630;9.276;2022-08-19T14:00:08;50.08;;;39.50;;
34914;SDS011;21125;48.630;9.276;2022-08-19T14:02:35;46.42;;;38.60;;
34914;SDS011;21125;48.630;9.276;2022-08-19T14:05:02;50.20;;;38.17;;
34914;SDS011;21125;48.630;9.276;2022-08-19T14:07:28;52.35;;;41.67;;
34914;SDS011;21125;48.630;9.276;2022-08-19T14:09:54;47.92;;;38.35;;
34914;SDS011;21125;48.630;9.276;2022-08-19T14:12:21;48.20;;;38.88;;
34914;SDS011;21125;48.630;9.276;2022-08-19T14:14:47;47.63;;;39.08;;
34914;SDS011;21125;48.630;9.276;2022-08-19T14:17:13;48.25;;;37.72;;
34914;SDS011;21125;48.630;9.276;2022-08-19T14:19:39;52.20;;;38.33;;
34914;SDS011;21125;48.630;9.276;2022-08-19T14:22:05;49.40;;;38.60;;
34914;SDS011;21125;48.630;9.276;2022-08-19T14:24:31;52.25;;;39.92;;
34914;SDS011;21125;48.630;9.276;2022-08-19T14:26:57;49.00;;;38.70;;
34914;SDS011;21125;48.630;9.276;2022-08-19T14:29:24;51.35;;;40.38;;
34914;SDS011;21125;48.630;9.276;2022-08-19T14:31:50;53.15;;;38.55;;
34914;SDS011;21125;48.630;9.276;2022-08-19T14:34:16;48.35;;;37.47;;
34914;SDS011;21125;48.630;9.276;2022-08-19T14:36:42;50.38;;;39.60;;
34914;SDS011;21125;48.630;9.276;2022-08-19T14:39:09;45.17;;;37.67;;